createdAt,value
2018-05-13T00:00:27.669Z,954.87
2018-05-13T00:01:08.196Z,954.85
2018-05-13T00:01:49.614Z,954.86
2018-05-13T00:02:30.139Z,954.86
2018-05-13T00:03:10.666Z,954.86
2018-05-13T00:03:51.195Z,954.84
2018-05-13T00:04:31.721Z,954.83
2018-05-13T00:05:12.335Z,954.83
2018-05-13T00:05:53.735Z,954.84
2018-05-13T00:06:33.299Z,954.85
2018-05-13T00:07:13.829Z,954.82
2018-05-13T00:07:54.348Z,954.78
2018-05-13T00:08:36.231Z,954.84
2018-05-13T00:09:16.709Z,954.82
2018-05-13T00:09:57.238Z,954.82
2018-05-13T00:10:38.729Z,954.83
2018-05-13T00:11:18.305Z,954.82
2018-05-13T00:11:58.826Z,954.81
2018-05-13T00:12:40.238Z,954.81
2018-05-13T00:13:20.732Z,954.82
2018-05-13T00:14:00.363Z,954.83
2018-05-13T00:14:40.880Z,954.8
2018-05-13T00:15:21.410Z,954.82
2018-05-13T00:16:01.934Z,954.78
2018-05-13T00:16:42.460Z,954.8
2018-05-13T00:17:22.979Z,954.81
2018-05-13T00:18:03.514Z,954.81
2018-05-13T00:18:44.047Z,954.84
2018-05-13T00:19:24.572Z,954.78
2018-05-13T00:20:05.105Z,954.83
2018-05-13T00:20:45.629Z,954.78
2018-05-13T00:21:26.701Z,954.78
2018-05-13T00:22:07.229Z,954.8
2018-05-13T00:22:47.763Z,954.79
2018-05-13T00:23:28.292Z,954.78
2018-05-13T00:24:08.882Z,954.78
2018-05-13T00:24:49.360Z,954.78
2018-05-13T00:25:29.893Z,954.71
2018-05-13T00:26:10.418Z,954.75
2018-05-13T00:26:50.951Z,954.71
2018-05-13T00:27:31.483Z,954.69
2018-05-13T00:28:12.904Z,954.68
2018-05-13T00:28:55.233Z,954.66
2018-05-13T00:29:34.823Z,954.72
2018-05-13T00:30:15.358Z,954.65
2018-05-13T00:30:55.889Z,954.7
2018-05-13T00:31:36.417Z,954.66
2018-05-13T00:32:16.946Z,954.61
2018-05-13T00:32:58.237Z,954.61
2018-05-13T00:33:37.979Z,954.59
2018-05-13T00:34:18.511Z,954.55
2018-05-13T00:34:59.038Z,954.6
2018-05-13T00:35:39.567Z,954.56
2018-05-13T00:36:20.096Z,954.57
2018-05-13T00:37:00.629Z,954.57
2018-05-13T00:37:41.160Z,954.61
2018-05-13T00:38:21.683Z,954.59
2018-05-13T00:39:02.740Z,954.65
2018-05-13T00:39:42.740Z,954.57
2018-05-13T00:40:23.736Z,954.62
2018-05-13T00:41:03.782Z,954.62
2018-05-13T00:41:44.310Z,954.62
2018-05-13T00:42:24.820Z,954.59
2018-05-13T00:43:05.350Z,954.57
2018-05-13T00:43:45.878Z,954.57
2018-05-13T00:44:26.411Z,954.52
2018-05-13T00:45:06.939Z,954.58
2018-05-13T00:45:47.466Z,954.52
2018-05-13T00:46:27.986Z,954.55
2018-05-13T00:47:08.515Z,954.53
2018-05-13T00:47:49.045Z,954.51
2018-05-13T00:48:29.578Z,954.52
2018-05-13T00:49:10.100Z,954.51
2018-05-13T00:49:50.633Z,954.49
2018-05-13T00:50:31.743Z,954.51
2018-05-13T00:51:11.671Z,954.47
2018-05-13T00:51:52.191Z,954.43
2018-05-13T00:52:32.720Z,954.47
2018-05-13T00:53:13.249Z,954.45
2018-05-13T00:53:53.780Z,954.42
2018-05-13T00:54:34.308Z,954.44
2018-05-13T00:55:14.840Z,954.44
2018-05-13T00:55:55.359Z,954.45
2018-05-13T00:56:35.893Z,954.44
2018-05-13T00:57:16.415Z,954.44
2018-05-13T00:57:57.499Z,954.44
2018-05-13T00:58:38.026Z,954.42
2018-05-13T00:59:18.559Z,954.45
2018-05-13T00:59:59.089Z,954.45
2018-05-13T01:00:39.625Z,954.4
2018-05-13T01:01:20.744Z,954.41
2018-05-13T01:02:00.661Z,954.43
2018-05-13T01:02:41.814Z,954.42
2018-05-13T01:03:22.273Z,954.37
2018-05-13T01:04:02.806Z,954.32
2018-05-13T01:04:43.335Z,954.35
2018-05-13T01:05:25.120Z,954.33
2018-05-13T01:06:06.246Z,954.29
2018-05-13T01:06:46.939Z,954.28
2018-05-13T01:07:27.439Z,954.24
2018-05-13T01:08:07.974Z,954.26
2018-05-13T01:08:48.503Z,954.23
2018-05-13T01:09:29.033Z,954.2
2018-05-13T01:10:10.423Z,954.17
2018-05-13T01:10:51.740Z,954.18
2018-05-13T01:11:31.456Z,954.14
2018-05-13T01:12:12.901Z,954.17
2018-05-13T01:12:53.434Z,954.12
2018-05-13T01:13:33.940Z,954.15
2018-05-13T01:14:15.244Z,954.12
2018-05-13T01:14:54.998Z,954.11
2018-05-13T01:15:35.743Z,954.08
2018-05-13T01:16:16.269Z,954.11
2018-05-13T01:16:56.790Z,954.09
2018-05-13T01:17:38.242Z,954.09
2018-05-13T01:18:17.831Z,954.09
2018-05-13T01:18:58.355Z,954.07
2018-05-13T01:19:38.883Z,954.09
2018-05-13T01:20:19.409Z,954.13
2018-05-13T01:21:00.742Z,954.09
2018-05-13T01:21:40.464Z,954.09
2018-05-13T01:22:20.997Z,954.09
2018-05-13T01:23:01.516Z,954.1
2018-05-13T01:23:42.046Z,954.12
2018-05-13T01:24:22.561Z,954.09
2018-05-13T01:25:03.090Z,954.07
2018-05-13T01:25:43.642Z,954.06
2018-05-13T01:26:24.156Z,954.05
2018-05-13T01:27:04.677Z,954.08
2018-05-13T01:27:45.206Z,954.08
2018-05-13T01:28:26.245Z,954.05
2018-05-13T01:29:07.153Z,954.07
2018-05-13T01:29:47.679Z,954.04
2018-05-13T01:30:28.209Z,954.02
2018-05-13T01:31:08.744Z,954.04
2018-05-13T01:31:49.258Z,954.08
2018-05-13T01:32:29.788Z,954.03
2018-05-13T01:33:10.312Z,954.05
2018-05-13T01:33:50.842Z,954.09
2018-05-13T01:34:31.371Z,954.08
2018-05-13T01:35:11.900Z,954.09
2018-05-13T01:35:52.428Z,954.03
2018-05-13T01:36:32.951Z,954.13
2018-05-13T01:37:13.485Z,954.13
2018-05-13T01:37:53.999Z,954.14
2018-05-13T01:38:34.530Z,954.15
2018-05-13T01:39:15.045Z,954.15
2018-05-13T01:39:55.563Z,954.15
2018-05-13T01:40:36.087Z,954.15
2018-05-13T01:41:16.614Z,954.17
2018-05-13T01:41:57.134Z,954.17
2018-05-13T01:42:37.661Z,954.2
2018-05-13T01:43:18.183Z,954.2
2018-05-13T01:43:58.709Z,954.19
2018-05-13T01:44:39.238Z,954.2
2018-05-13T01:45:19.764Z,954.19
2018-05-13T01:46:00.279Z,954.2
2018-05-13T01:46:40.816Z,954.17
2018-05-13T01:47:21.339Z,954.16
2018-05-13T01:48:01.855Z,954.18
2018-05-13T01:48:43.251Z,954.18
2018-05-13T01:49:22.894Z,954.21
2018-05-13T01:50:03.423Z,954.17
2018-05-13T01:50:43.953Z,954.15
2018-05-13T01:51:24.480Z,954.21
2018-05-13T01:52:05.005Z,954.17
2018-05-13T01:52:46.752Z,954.18
2018-05-13T01:53:27.160Z,954.17
2018-05-13T01:54:07.689Z,954.18
2018-05-13T01:54:48.229Z,954.17
2018-05-13T01:55:28.763Z,954.21
2018-05-13T01:56:09.288Z,954.19
2018-05-13T01:56:50.623Z,954.2
2018-05-13T01:57:31.146Z,954.16
2018-05-13T01:58:11.678Z,954.19
2018-05-13T01:58:52.211Z,954.21
2018-05-13T01:59:32.738Z,954.16
2018-05-13T02:00:13.268Z,954.22
2018-05-13T02:00:53.788Z,954.23
2018-05-13T02:01:34.313Z,954.25
2018-05-13T02:02:14.844Z,954.27
2018-05-13T02:02:55.363Z,954.29
2018-05-13T02:03:35.891Z,954.29
2018-05-13T02:04:16.428Z,954.3
2018-05-13T02:04:56.956Z,954.33
2018-05-13T02:05:37.486Z,954.29
2018-05-13T02:06:18.015Z,954.3
2018-05-13T02:06:58.549Z,954.3
2018-05-13T02:07:39.078Z,954.32
2018-05-13T02:08:19.594Z,954.32
2018-05-13T02:09:00.127Z,954.32
2018-05-13T02:09:41.253Z,954.36
2018-05-13T02:10:21.184Z,954.36
2018-05-13T02:11:01.717Z,954.38
2018-05-13T02:11:42.243Z,954.36
2018-05-13T02:12:22.774Z,954.39
2018-05-13T02:13:03.305Z,954.37
2018-05-13T02:13:43.845Z,954.35
2018-05-13T02:14:24.376Z,954.36
2018-05-13T02:15:05.324Z,954.35
2018-05-13T02:15:45.850Z,954.38
2018-05-13T02:16:26.385Z,954.35
2018-05-13T02:17:06.916Z,954.37
2018-05-13T02:17:47.448Z,954.37
2018-05-13T02:18:27.972Z,954.4
2018-05-13T02:19:10.757Z,954.38
2018-05-13T02:19:51.165Z,954.39
2018-05-13T02:20:31.635Z,954.41
2018-05-13T02:21:12.169Z,954.39
2018-05-13T02:21:52.697Z,954.39
2018-05-13T02:22:33.755Z,954.39
2018-05-13T02:23:15.257Z,954.34
2018-05-13T02:23:55.311Z,954.37
2018-05-13T02:24:35.844Z,954.35
2018-05-13T02:25:16.376Z,954.32
2018-05-13T02:25:57.756Z,954.35
2018-05-13T02:26:37.725Z,954.3
2018-05-13T02:27:17.920Z,954.3
2018-05-13T02:27:58.441Z,954.32
2018-05-13T02:28:38.971Z,954.31
2018-05-13T02:29:19.502Z,954.28
2018-05-13T02:30:00.020Z,954.3
2018-05-13T02:30:41.353Z,954.29
2018-05-13T02:31:21.885Z,954.3
2018-05-13T02:32:02.411Z,954.29
2018-05-13T02:32:42.938Z,954.26
2018-05-13T02:33:23.471Z,954.32
2018-05-13T02:34:03.998Z,954.32
2018-05-13T02:34:44.503Z,954.29
2018-05-13T02:35:25.030Z,954.29
2018-05-13T02:36:05.556Z,954.28
2018-05-13T02:36:46.083Z,954.27
2018-05-13T02:37:26.608Z,954.29
2018-05-13T02:38:07.138Z,954.3
2018-05-13T02:38:47.671Z,954.32
2018-05-13T02:39:28.201Z,954.27
2018-05-13T02:40:08.729Z,954.29
2018-05-13T02:40:49.254Z,954.3
2018-05-13T02:41:30.260Z,954.28
2018-05-13T02:42:10.281Z,954.24
2018-05-13T02:42:50.804Z,954.29
2018-05-13T02:43:31.333Z,954.24
2018-05-13T02:44:11.863Z,954.22
2018-05-13T02:44:53.260Z,954.26
2018-05-13T02:45:33.470Z,954.26
2018-05-13T02:46:13.984Z,954.25
2018-05-13T02:46:56.038Z,954.29
2018-05-13T02:47:37.261Z,954.27
2018-05-13T02:48:17.102Z,954.29
2018-05-13T02:48:57.628Z,954.3
2018-05-13T02:49:38.129Z,954.27
2018-05-13T02:50:18.660Z,954.26
2018-05-13T02:50:59.177Z,954.34
2018-05-13T02:51:39.704Z,954.31
2018-05-13T02:52:20.239Z,954.35
2018-05-13T02:53:00.760Z,954.33
2018-05-13T02:53:42.039Z,954.37
2018-05-13T02:54:22.573Z,954.38
2018-05-13T02:55:03.103Z,954.39
2018-05-13T02:55:43.634Z,954.39
2018-05-13T02:56:26.832Z,954.43
2018-05-13T02:57:07.362Z,954.38
2018-05-13T02:57:47.893Z,954.42
2018-05-13T02:58:28.426Z,954.41
2018-05-13T02:59:08.957Z,954.37
2018-05-13T02:59:50.462Z,954.41
2018-05-13T03:00:30.982Z,954.36
2018-05-13T03:01:11.502Z,954.37
2018-05-13T03:01:52.019Z,954.35
2018-05-13T03:02:32.544Z,954.32
2018-05-13T03:03:13.089Z,954.3
2018-05-13T03:03:53.599Z,954.31
2018-05-13T03:04:34.125Z,954.3
2018-05-13T03:05:14.655Z,954.33
2018-05-13T03:05:55.186Z,954.32
2018-05-13T03:06:35.710Z,954.34
2018-05-13T03:07:16.768Z,954.33
2018-05-13T03:07:56.880Z,954.3
2018-05-13T03:08:37.657Z,954.35
2018-05-13T03:09:18.152Z,954.34
2018-05-13T03:09:58.667Z,954.29
2018-05-13T03:10:39.766Z,954.32
2018-05-13T03:11:19.720Z,954.33
2018-05-13T03:12:00.238Z,954.31
2018-05-13T03:12:41.670Z,954.28
2018-05-13T03:13:22.205Z,954.26
2018-05-13T03:14:03.473Z,954.26
2018-05-13T03:14:43.997Z,954.27
2018-05-13T03:15:24.524Z,954.26
2018-05-13T03:16:05.061Z,954.23
2018-05-13T03:16:45.574Z,954.25
2018-05-13T03:17:26.106Z,954.27
2018-05-13T03:18:06.638Z,954.27
2018-05-13T03:18:47.166Z,954.3
2018-05-13T03:19:27.698Z,954.31
2018-05-13T03:20:08.228Z,954.34
2018-05-13T03:20:48.757Z,954.38
2018-05-13T03:21:29.281Z,954.35
2018-05-13T03:22:09.795Z,954.4
2018-05-13T03:22:51.269Z,954.39
2018-05-13T03:23:30.995Z,954.44
2018-05-13T03:24:12.440Z,954.42
2018-05-13T03:24:52.971Z,954.44
2018-05-13T03:25:33.590Z,954.41
2018-05-13T03:26:14.773Z,954.42
2018-05-13T03:26:54.637Z,954.45
2018-05-13T03:27:35.771Z,954.44
2018-05-13T03:28:15.681Z,954.46
2018-05-13T03:28:56.208Z,954.43
2018-05-13T03:29:36.739Z,954.4
2018-05-13T03:30:17.773Z,954.42
2018-05-13T03:30:57.793Z,954.49
2018-05-13T03:31:38.318Z,954.48
2018-05-13T03:32:18.846Z,954.47
2018-05-13T03:32:59.942Z,954.5
2018-05-13T03:33:40.465Z,954.46
2018-05-13T03:34:20.993Z,954.49
2018-05-13T03:35:02.271Z,954.56
2018-05-13T03:35:42.039Z,954.55
2018-05-13T03:36:22.569Z,954.53
2018-05-13T03:37:03.096Z,954.51
2018-05-13T03:37:43.627Z,954.55
2018-05-13T03:38:24.160Z,954.5
2018-05-13T03:39:04.690Z,954.48
2018-05-13T03:39:45.250Z,954.51
2018-05-13T03:40:26.649Z,954.51
2018-05-13T03:41:07.170Z,954.54
2018-05-13T03:41:47.690Z,954.55
2018-05-13T03:42:28.221Z,954.53
2018-05-13T03:43:09.543Z,954.54
2018-05-13T03:43:50.072Z,954.51
2018-05-13T03:44:30.608Z,954.51
2018-05-13T03:45:11.772Z,954.55
2018-05-13T03:45:51.646Z,954.5
2018-05-13T03:46:32.173Z,954.51
2018-05-13T03:47:12.703Z,954.52
2018-05-13T03:47:53.772Z,954.53
2018-05-13T03:48:33.739Z,954.54
2018-05-13T03:49:14.269Z,954.5
2018-05-13T03:49:54.799Z,954.55
2018-05-13T03:50:35.326Z,954.58
2018-05-13T03:51:15.859Z,954.62
2018-05-13T03:51:56.387Z,954.58
2018-05-13T03:52:36.914Z,954.58
2018-05-13T03:53:17.444Z,954.58
2018-05-13T03:53:57.959Z,954.58
2018-05-13T03:54:38.487Z,954.58
2018-05-13T03:55:19.771Z,954.6
2018-05-13T03:56:00.047Z,954.56
2018-05-13T03:56:40.655Z,954.55
2018-05-13T03:57:21.090Z,954.58
2018-05-13T03:58:01.621Z,954.56
2018-05-13T03:58:42.143Z,954.56
2018-05-13T03:59:22.678Z,954.55
2018-05-13T04:00:03.241Z,954.54
2018-05-13T04:00:44.272Z,954.56
2018-05-13T04:01:24.771Z,954.61
2018-05-13T04:02:04.780Z,954.61
2018-05-13T04:02:45.310Z,954.62
2018-05-13T04:03:25.848Z,954.64
2018-05-13T04:04:06.371Z,954.6
2018-05-13T04:04:46.890Z,954.67
2018-05-13T04:05:27.415Z,954.64
2018-05-13T04:06:07.932Z,954.67
2018-05-13T04:06:48.442Z,954.66
2018-05-13T04:07:29.011Z,954.66
2018-05-13T04:08:09.496Z,954.67
2018-05-13T04:08:50.081Z,954.69
2018-05-13T04:09:30.539Z,954.69
2018-05-13T04:10:11.068Z,954.7
2018-05-13T04:10:51.600Z,954.72
2018-05-13T04:11:32.122Z,954.73
2018-05-13T04:12:12.650Z,954.72
2018-05-13T04:12:53.175Z,954.71
2018-05-13T04:13:33.700Z,954.71
2018-05-13T04:14:14.222Z,954.71
2018-05-13T04:14:54.738Z,954.72
2018-05-13T04:15:35.295Z,954.71
2018-05-13T04:16:15.820Z,954.7
2018-05-13T04:16:56.341Z,954.68
2018-05-13T04:17:37.551Z,954.64
2018-05-13T04:18:18.079Z,954.66
2018-05-13T04:18:58.610Z,954.67
2018-05-13T04:19:39.653Z,954.66
2018-05-13T04:20:21.784Z,954.68
2018-05-13T04:21:01.498Z,954.66
2018-05-13T04:21:42.025Z,954.65
2018-05-13T04:22:22.549Z,954.66
2018-05-13T04:23:03.775Z,954.69
2018-05-13T04:23:44.337Z,954.68
2018-05-13T04:24:25.694Z,954.69
2018-05-13T04:25:06.775Z,954.7
2018-05-13T04:25:46.741Z,954.69
2018-05-13T04:26:27.265Z,954.73
2018-05-13T04:27:07.787Z,954.74
2018-05-13T04:27:48.322Z,954.73
2018-05-13T04:28:30.278Z,954.75
2018-05-13T04:29:10.195Z,954.74
2018-05-13T04:29:50.722Z,954.76
2018-05-13T04:30:31.245Z,954.78
2018-05-13T04:31:11.781Z,954.76
2018-05-13T04:31:52.776Z,954.8
2018-05-13T04:32:32.864Z,954.82
2018-05-13T04:33:13.380Z,954.76
2018-05-13T04:33:53.908Z,954.8
2018-05-13T04:34:34.476Z,954.81
2018-05-13T04:35:15.005Z,954.82
2018-05-13T04:35:55.519Z,954.83
2018-05-13T04:36:36.032Z,954.78
2018-05-13T04:37:16.561Z,954.83
2018-05-13T04:37:57.099Z,954.83
2018-05-13T04:38:38.261Z,954.8
2018-05-13T04:39:18.785Z,954.84
2018-05-13T04:39:59.309Z,954.82
2018-05-13T04:40:39.840Z,954.82
2018-05-13T04:41:22.046Z,954.82
2018-05-13T04:42:02.577Z,954.81
2018-05-13T04:42:43.123Z,954.82
2018-05-13T04:43:23.653Z,954.8
2018-05-13T04:44:04.181Z,954.82
2018-05-13T04:44:44.710Z,954.81
2018-05-13T04:45:25.240Z,954.82
2018-05-13T04:46:06.016Z,954.82
2018-05-13T04:46:46.537Z,954.81
2018-05-13T04:47:27.067Z,954.8
2018-05-13T04:48:07.643Z,954.82
2018-05-13T04:48:48.171Z,954.81
2018-05-13T04:49:28.697Z,954.82
2018-05-13T04:50:09.219Z,954.8
2018-05-13T04:50:49.748Z,954.8
2018-05-13T04:51:30.264Z,954.77
2018-05-13T04:52:10.797Z,954.77
2018-05-13T04:52:52.235Z,954.79
2018-05-13T04:53:32.767Z,954.76
2018-05-13T04:54:13.319Z,954.76
2018-05-13T04:54:55.281Z,954.74
2018-05-13T04:55:35.781Z,954.71
2018-05-13T04:56:16.315Z,954.71
2018-05-13T04:56:56.847Z,954.75
2018-05-13T04:57:37.370Z,954.76
2018-05-13T04:58:17.897Z,954.73
2018-05-13T04:58:58.418Z,954.72
2018-05-13T04:59:38.950Z,954.78
2018-05-13T05:00:19.460Z,954.71
2018-05-13T05:00:59.988Z,954.72
2018-05-13T05:01:40.519Z,954.75
2018-05-13T05:02:21.031Z,954.75
2018-05-13T05:03:01.556Z,954.67
2018-05-13T05:03:42.086Z,954.7
2018-05-13T05:04:22.610Z,954.7
2018-05-13T05:05:03.125Z,954.69
2018-05-13T05:05:43.770Z,954.68
2018-05-13T05:06:24.205Z,954.67
2018-05-13T05:07:04.746Z,954.64
2018-05-13T05:07:45.787Z,954.62
2018-05-13T05:08:25.801Z,954.65
2018-05-13T05:09:07.079Z,954.67
2018-05-13T05:09:48.268Z,954.64
2018-05-13T05:10:28.918Z,954.67
2018-05-13T05:11:09.450Z,954.69
2018-05-13T05:11:49.978Z,954.69
2018-05-13T05:12:30.502Z,954.67
2018-05-13T05:13:11.037Z,954.68
2018-05-13T05:13:51.745Z,954.63
2018-05-13T05:14:32.222Z,954.63
2018-05-13T05:15:12.742Z,954.61
2018-05-13T05:15:53.321Z,954.65
2018-05-13T05:16:33.929Z,954.68
2018-05-13T05:17:14.812Z,954.66
2018-05-13T05:17:57.021Z,954.69
2018-05-13T05:18:37.899Z,954.68
2018-05-13T05:19:18.613Z,954.67
2018-05-13T05:19:59.195Z,954.71
2018-05-13T05:20:39.882Z,954.71
2018-05-13T05:21:21.289Z,954.7
2018-05-13T05:22:01.213Z,954.69
2018-05-13T05:22:41.722Z,954.7
2018-05-13T05:23:22.478Z,954.74
2018-05-13T05:24:03.786Z,954.73
2018-05-13T05:24:43.767Z,954.72
2018-05-13T05:25:25.176Z,954.71
2018-05-13T05:26:05.793Z,954.74
2018-05-13T05:26:46.186Z,954.73
2018-05-13T05:27:26.748Z,954.71
2018-05-13T05:28:07.215Z,954.71
2018-05-13T05:28:47.759Z,954.67
2018-05-13T05:29:28.280Z,954.68
2018-05-13T05:30:08.815Z,954.7
2018-05-13T05:30:50.279Z,954.71
2018-05-13T05:31:32.293Z,954.7
2018-05-13T05:32:11.860Z,954.7
2018-05-13T05:32:52.384Z,954.66
2018-05-13T05:33:32.901Z,954.67
2018-05-13T05:34:14.064Z,954.68
2018-05-13T05:34:54.583Z,954.72
2018-05-13T05:35:35.113Z,954.67
2018-05-13T05:36:15.689Z,954.67
2018-05-13T05:36:56.787Z,954.69
2018-05-13T05:37:37.996Z,954.64
2018-05-13T05:38:18.524Z,954.64
2018-05-13T05:38:59.047Z,954.64
2018-05-13T05:39:39.561Z,954.65
2018-05-13T05:40:20.081Z,954.65
2018-05-13T05:41:00.598Z,954.65
2018-05-13T05:41:41.112Z,954.69
2018-05-13T05:42:21.635Z,954.71
2018-05-13T05:43:02.160Z,954.71
2018-05-13T05:43:43.288Z,954.71
2018-05-13T05:44:23.224Z,954.73
2018-05-13T05:45:03.736Z,954.74
2018-05-13T05:45:44.248Z,954.76
2018-05-13T05:46:25.712Z,954.78
2018-05-13T05:47:06.243Z,954.78
2018-05-13T05:47:46.791Z,954.8
2018-05-13T05:48:27.374Z,954.75
2018-05-13T05:49:07.835Z,954.78
2018-05-13T05:49:48.359Z,954.79
2018-05-13T05:50:28.872Z,954.83
2018-05-13T05:51:09.394Z,954.79
2018-05-13T05:51:49.922Z,954.8
2018-05-13T05:52:31.292Z,954.8
2018-05-13T05:53:10.972Z,954.81
2018-05-13T05:53:51.505Z,954.8
2018-05-13T05:54:32.797Z,954.82
2018-05-13T05:55:12.542Z,954.81
2018-05-13T05:55:53.077Z,954.79
2018-05-13T05:56:33.606Z,954.82
2018-05-13T05:57:14.136Z,954.81
2018-05-13T05:57:54.664Z,954.8
2018-05-13T05:58:35.194Z,954.77
2018-05-13T05:59:15.722Z,954.82
2018-05-13T05:59:56.255Z,954.8
2018-05-13T06:00:37.293Z,954.78
2018-05-13T06:01:17.308Z,954.82
2018-05-13T06:01:57.823Z,954.79
2018-05-13T06:02:38.353Z,954.78
2018-05-13T06:03:18.889Z,954.81
2018-05-13T06:04:00.303Z,954.8
2018-05-13T06:04:40.859Z,954.81
2018-05-13T06:05:21.406Z,954.8
2018-05-13T06:06:01.929Z,954.78
2018-05-13T06:06:42.478Z,954.78
2018-05-13T06:07:22.987Z,954.78
2018-05-13T06:08:03.504Z,954.79
2018-05-13T06:08:44.272Z,954.78
2018-05-13T06:09:24.801Z,954.73
2018-05-13T06:10:05.319Z,954.75
2018-05-13T06:10:45.845Z,954.77
2018-05-13T06:11:26.367Z,954.77
2018-05-13T06:12:06.890Z,954.76
2018-05-13T06:12:47.421Z,954.73
2018-05-13T06:13:27.950Z,954.73
2018-05-13T06:14:08.474Z,954.73
2018-05-13T06:14:49.326Z,954.69
2018-05-13T06:15:29.862Z,954.72
2018-05-13T06:16:10.452Z,954.69
2018-05-13T06:16:51.799Z,954.72
2018-05-13T06:17:31.505Z,954.72
2018-05-13T06:18:12.037Z,954.69
2018-05-13T06:18:53.038Z,954.72
2018-05-13T06:19:33.538Z,954.69
2018-05-13T06:20:14.086Z,954.66
2018-05-13T06:20:54.639Z,954.7
2018-05-13T06:21:35.179Z,954.69
2018-05-13T06:22:15.708Z,954.67
2018-05-13T06:22:56.244Z,954.63
2018-05-13T06:23:36.771Z,954.68
2018-05-13T06:24:17.299Z,954.64
2018-05-13T06:24:57.827Z,954.66
2018-05-13T06:25:38.357Z,954.64
2018-05-13T06:26:18.965Z,954.67
2018-05-13T06:26:59.481Z,954.66
2018-05-13T06:27:40.006Z,954.67
2018-05-13T06:28:20.534Z,954.67
2018-05-13T06:29:01.583Z,954.66
2018-05-13T06:29:42.981Z,954.7
2018-05-13T06:30:23.761Z,954.7
2018-05-13T06:31:04.295Z,954.69
2018-05-13T06:31:44.890Z,954.69
2018-05-13T06:32:26.315Z,954.65
2018-05-13T06:33:07.306Z,954.64
2018-05-13T06:33:46.407Z,954.7
2018-05-13T06:34:26.959Z,954.68
2018-05-13T06:35:07.767Z,954.7
2018-05-13T06:35:48.465Z,954.7
2018-05-13T06:36:29.292Z,954.74
2018-05-13T06:37:09.820Z,954.72
2018-05-13T06:37:50.349Z,954.79
2018-05-13T06:38:31.235Z,954.76
2018-05-13T06:39:11.911Z,954.76
2018-05-13T06:39:52.842Z,954.74
2018-05-13T06:40:33.347Z,954.71
2018-05-13T06:41:13.875Z,954.75
2018-05-13T06:41:54.378Z,954.74
2018-05-13T06:42:35.150Z,954.74
2018-05-13T06:43:15.656Z,954.76
2018-05-13T06:43:56.185Z,954.72
2018-05-13T06:44:36.911Z,954.72
2018-05-13T06:45:17.542Z,954.74
2018-05-13T06:45:58.702Z,954.77
2018-05-13T06:46:39.369Z,954.7
2018-05-13T06:47:19.903Z,954.7
2018-05-13T06:48:00.416Z,954.73
2018-05-13T06:48:42.065Z,954.72
2018-05-13T06:49:23.319Z,954.69
2018-05-13T06:50:03.972Z,954.73
2018-05-13T06:50:44.403Z,954.73
2018-05-13T06:51:25.355Z,954.73
2018-05-13T06:52:05.807Z,954.74
2018-05-13T06:52:46.429Z,954.74
2018-05-13T06:53:26.828Z,954.72
2018-05-13T06:54:07.371Z,954.7
2018-05-13T06:54:47.884Z,954.7
2018-05-13T06:55:29.316Z,954.64
2018-05-13T06:56:09.275Z,954.65
2018-05-13T06:56:49.790Z,954.67
2018-05-13T06:57:31.316Z,954.67
2018-05-13T06:58:10.960Z,954.66
2018-05-13T06:58:52.388Z,954.68
2018-05-13T06:59:32.945Z,954.63
2018-05-13T07:00:13.477Z,954.66
2018-05-13T07:00:54.819Z,954.72
2018-05-13T07:01:35.205Z,954.69
2018-05-13T07:02:15.759Z,954.69
2018-05-13T07:02:56.296Z,954.72
2018-05-13T07:03:36.827Z,954.69
2018-05-13T07:04:17.346Z,954.72
2018-05-13T07:04:58.231Z,954.72
2018-05-13T07:05:38.762Z,954.72
2018-05-13T07:06:19.839Z,954.69
2018-05-13T07:06:59.827Z,954.69
2018-05-13T07:07:42.078Z,954.74
2018-05-13T07:08:23.156Z,954.73
